Time;durP1;ratioP1;P1;durP2;ratioP2;P2;SDS_P1;SDS_P2;PMS_P1;PMS_P2;Temp;Humidity;BMP_temperature;BMP_pressure;BME280_temperature;BME280_humidity;BME280_pressure;Samples;Min_cycle;Max_cycle;Signal;HPM_P1;HPM_P2
2022/11/29 00:00:24;;;;;;;66.20;13.45;;;4.60;99.90;;;;;;5035704;28;20029;-91
2022/11/29 00:02:52;;;;;;;39.08;11.27;;;4.70;99.90;;;;;;5035695;28;20024;-91
2022/11/29 00:05:17;;;;;;;38.97;9.40;;;4.60;99.90;;;;;;5037192;28;20028;-90
2022/11/29 00:07:43;;;;;;;46.30;9.77;;;4.60;99.90;;;;;;5038364;28;20036;-92
2022/11/29 00:10:09;;;;;;;39.90;9.60;;;4.60;99.90;;;;;;5041429;28;20033;-90
2022/11/29 00:12:35;;;;;;;61.25;10.82;;;4.60;99.90;;;;;;5057560;28;20021;-93
2022/11/29 00:15:00;;;;;;;40.55;9.25;;;4.60;99.90;;;;;;5055259;28;20040;-89
2022/11/29 00:17:26;;;;;;;27.65;9.18;;;4.60;99.90;;;;;;5055420;28;20528;-92
2022/11/29 00:19:52;;;;;;;29.77;10.23;;;4.50;99.90;;;;;;5044471;28;20101;-91
2022/11/29 00:22:17;;;;;;;36.45;10.88;;;4.50;99.90;;;;;;5043277;28;20449;-90
2022/11/29 00:24:43;;;;;;;40.95;9.70;;;4.50;99.90;;;;;;5040277;28;20063;-91
2022/11/29 00:27:09;;;;;;;91.72;10.80;;;4.40;99.90;;;;;;5037169;28;20486;-91
2022/11/29 00:29:34;;;;;;;44.65;11.93;;;4.40;99.90;;;;;;5036477;28;20371;-92
2022/11/29 00:32:00;;;;;;;49.92;10.98;;;4.40;99.90;;;;;;5036069;28;20040;-91
2022/11/29 00:34:26;;;;;;;53.97;11.35;;;4.30;99.90;;;;;;5035987;28;20025;-91
2022/11/29 00:36:52;;;;;;;65.35;12.70;;;4.30;99.90;;;;;;5035742;28;20029;-91
2022/11/29 00:39:18;;;;;;;114.47;14.48;;;4.30;99.90;;;;;;5035769;28;20473;-92
2022/11/29 00:41:44;;;;;;;50.95;12.50;;;4.30;99.90;;;;;;5035934;28;20041;-90
2022/11/29 00:44:10;;;;;;;139.90;15.13;;;4.20;99.90;;;;;;5035592;28;20028;-89
2022/11/29 00:46:36;;;;;;;65.50;13.25;;;4.20;99.90;;;;;;5036320;28;20025;-92
2022/11/29 00:49:02;;;;;;;248.13;15.57;;;4.20;99.90;;;;;;5040584;28;20045;-90
2022/11/29 00:51:28;;;;;;;173.85;13.23;;;4.20;99.90;;;;;;5046624;28;20059;-92
2022/11/29 00:53:53;;;;;;;145.07;14.55;;;4.10;99.90;;;;;;5025452;28;20025;-91
2022/11/29 00:56:19;;;;;;;104.00;12.52;;;4.10;99.90;;;;;;5015769;28;20125;-88
2022/11/29 00:58:47;;;;;;;97.32;12.60;;;4.10;99.90;;;;;;5015906;28;20145;-91
2022/11/29 01:01:13;;;;;;;271.42;15.20;;;4.00;99.90;;;;;;5015896;28;20037;-91
2022/11/29 01:03:39;;;;;;;45.75;12.32;;;4.00;99.90;;;;;;5016433;28;20037;-91
2022/11/29 01:06:08;;;;;;;42.25;12.32;;;4.00;99.90;;;;;;5016387;28;20497;-91
2022/11/29 01:08:34;;;;;;;131.07;13.82;;;3.90;99.90;;;;;;5015966;28;20053;-91
2022/11/29 01:11:10;;;;;;;58.60;11.13;;;3.90;99.90;;;;;;5015229;28;20148;-91
2022/11/29 01:13:36;;;;;;;71.68;11.90;;;3.90;99.90;;;;;;5033391;28;20029;-90
2022/11/29 01:16:04;;;;;;;54.03;11.00;;;3.90;99.90;;;;;;5032823;28;20036;-90
2022/11/29 01:18:30;;;;;;;72.32;12.45;;;3.90;99.90;;;;;;5015247;28;20037;-90
2022/11/29 01:21:11;;;;;;;52.50;10.65;;;3.90;99.90;;;;;;5032643;28;20022;-90
2022/11/29 01:23:38;;;;;;;45.58;9.32;;;3.90;99.90;;;;;;5015252;28;20036;-91
2022/11/29 01:26:08;;;;;;;39.72;10.75;;;3.90;99.90;;;;;;5015335;28;20095;-90
2022/11/29 01:28:34;;;;;;;33.17;9.07;;;3.80;99.90;;;;;;5018519;28;20025;-90
2022/11/29 01:31:08;;;;;;;66.00;10.55;;;3.90;99.90;;;;;;5019565;28;20033;-89
2022/11/29 01:33:34;;;;;;;33.13;10.68;;;3.80;99.90;;;;;;5020602;28;20030;-89
2022/11/29 01:36:00;;;;;;;60.30;10.07;;;3.80;99.90;;;;;;5026111;28;20496;-90
2022/11/29 01:38:26;;;;;;;29.60;9.70;;;3.80;99.90;;;;;;5018949;28;20029;-91
2022/11/29 01:41:06;;;;;;;43.38;8.30;;;3.70;99.90;;;;;;5018356;28;20434;-90
2022/11/29 01:43:33;;;;;;;33.00;8.98;;;3.70;99.90;;;;;;5018958;28;20037;-91
2022/11/29 01:45:59;;;;;;;39.45;9.90;;;3.70;99.90;;;;;;5018810;28;20444;-91
2022/11/29 01:48:32;;;;;;;52.45;10.10;;;3.60;99.90;;;;;;5019270;28;20033;-91
2022/11/29 01:50:59;;;;;;;33.53;8.80;;;3.70;99.90;;;;;;5019337;28;20026;-91
2022/11/29 01:53:26;;;;;;;39.47;8.70;;;3.60;99.90;;;;;;5019232;28;20040;-91
2022/11/29 01:55:56;;;;;;;57.50;9.70;;;3.60;99.90;;;;;;5018516;28;20032;-91
2022/11/29 01:58:21;;;;;;;64.05;9.35;;;3.50;99.90;;;;;;5018240;28;20120;-91
2022/11/29 02:00:47;;;;;;;38.45;9.75;;;3.50;99.90;;;;;;5018321;28;22046;-90
2022/11/29 02:03:15;;;;;;;22.55;8.63;;;3.50;99.90;;;;;;5018528;28;20151;-91
2022/11/29 02:05:46;;;;;;;98.65;10.27;;;3.40;99.90;;;;;;5018390;28;20179;-91
2022/11/29 02:08:14;;;;;;;41.35;10.00;;;3.40;99.90;;;;;;5018647;28;20037;-90
2022/11/29 02:11:01;;;;;;;31.00;9.50;;;3.40;99.90;;;;;;5018176;28;20099;-91
2022/11/29 02:13:46;;;;;;;44.35;9.10;;;3.30;99.90;;;;;;5017938;28;20498;-92
2022/11/29 02:16:33;;;;;;;30.58;9.52;;;3.30;99.90;;;;;;5017715;28;20071;-91
2022/11/29 02:19:20;;;;;;;37.15;8.70;;;3.30;99.90;;;;;;5017395;28;20048;-90
2022/11/29 02:21:56;;;;;;;56.78;8.90;;;3.30;99.90;;;;;;5035548;28;20048;-90
2022/11/29 02:24:44;;;;;;;40.97;9.00;;;3.20;99.90;;;;;;5017641;28;20566;-91
2022/11/29 02:27:25;;;;;;;72.88;11.65;;;3.20;99.90;;;;;;5017149;28;20025;-90
2022/11/29 02:30:03;;;;;;;49.40;8.90;;;3.20;99.90;;;;;;5017356;28;20380;-91
2022/11/29 02:32:51;;;;;;;59.03;8.55;;;3.10;99.90;;;;;;5016796;28;20057;-90
2022/11/29 02:35:41;;;;;;;28.63;8.85;;;3.10;99.90;;;;;;5016961;28;20545;-91
2022/11/29 02:38:21;;;;;;;54.15;9.75;;;3.00;99.90;;;;;;5016132;28;20076;-91
2022/11/29 02:41:10;;;;;;;26.17;7.67;;;3.10;99.90;;;;;;5016617;28;20030;-92
2022/11/29 02:43:56;;;;;;;37.37;9.03;;;3.00;99.90;;;;;;5017094;28;20045;-92
2022/11/29 02:46:46;;;;;;;67.07;9.70;;;3.00;99.90;;;;;;5016540;28;20053;-92
2022/11/29 02:49:29;;;;;;;26.13;8.10;;;3.00;99.90;;;;;;5034125;28;20025;-92
2022/11/29 02:52:04;;;;;;;35.58;8.15;;;2.90;99.90;;;;;;5016951;28;20030;-91
2022/11/29 02:54:55;;;;;;;35.28;8.00;;;2.90;99.90;;;;;;5016255;28;20072;-91
2022/11/29 02:57:44;;;;;;;39.72;8.88;;;2.90;99.90;;;;;;5019245;28;20041;-90
2022/11/29 03:00:22;;;;;;;63.42;11.93;;;2.90;99.90;;;;;;5036423;28;20067;-91
2022/11/29 03:03:29;;;;;;;33.03;10.05;;;2.90;99.90;;;;;;5036210;28;20039;-91
2022/11/29 03:06:14;;;;;;;109.28;10.40;;;2.90;99.90;;;;;;4953464;29;20028;-92
2022/11/29 03:08:48;;;;;;;48.78;9.07;;;2.90;99.90;;;;;;4953266;29;20039;-89
2022/11/29 03:11:23;;;;;;;92.82;12.93;;;2.90;99.90;;;;;;4937035;29;20089;-91
2022/11/29 03:14:20;;;;;;;31.92;9.30;;;2.80;99.90;;;;;;4938284;29;20035;-92
2022/11/29 03:17:06;;;;;;;49.83;9.55;;;2.80;99.90;;;;;;4915718;29;20059;-91
2022/11/29 03:20:07;;;;;;;47.45;9.95;;;2.80;99.90;;;;;;4920205;29;20032;-89
2022/11/29 03:23:01;;;;;;;110.70;11.38;;;2.80;99.90;;;;;;4915016;29;20072;-91
2022/11/29 03:25:39;;;;;;;60.72;10.00;;;2.80;99.90;;;;;;4906436;29;20024;-91
2022/11/29 03:28:04;;;;;;;34.78;8.45;;;2.80;99.90;;;;;;4915445;29;20139;-90
2022/11/29 03:30:32;;;;;;;39.17;10.48;;;2.80;99.90;;;;;;4915237;29;20131;-91
2022/11/29 03:33:14;;;;;;;44.35;10.98;;;2.80;99.90;;;;;;4915089;29;20098;-91
2022/11/29 03:35:47;;;;;;;41.47;11.00;;;2.80;99.90;;;;;;4905139;28;20178;-91
2022/11/29 03:38:31;;;;;;;117.82;12.13;;;2.80;99.90;;;;;;4974743;28;20471;-91
2022/11/29 03:41:04;;;;;;;60.33;12.07;;;2.80;99.90;;;;;;4975266;28;20058;-91
2022/11/29 03:44:11;;;;;;;36.80;9.23;;;2.80;99.90;;;;;;4975272;28;20034;-90
2022/11/29 03:46:55;;;;;;;62.83;9.75;;;2.80;99.90;;;;;;4973354;28;20030;-90
2022/11/29 03:49:51;;;;;;;55.17;9.95;;;2.80;99.90;;;;;;4975376;28;20125;-89
2022/11/29 03:52:51;;;;;;;82.15;12.38;;;2.80;99.90;;;;;;4991450;28;20038;-90
2022/11/29 03:55:25;;;;;;;57.22;11.57;;;2.80;99.90;;;;;;5035626;28;20025;-90
2022/11/29 03:58:03;;;;;;;51.28;9.50;;;2.80;99.90;;;;;;5035749;28;20045;-90
2022/11/29 04:00:48;;;;;;;46.35;9.80;;;2.80;99.90;;;;;;5035764;28;20090;-91
2022/11/29 04:03:45;;;;;;;47.67;9.07;;;2.80;99.90;;;;;;5035258;28;20139;-91
2022/11/29 04:06:28;;;;;;;65.30;10.95;;;2.80;99.90;;;;;;5055783;28;20033;-91
2022/11/29 04:09:14;;;;;;;59.63;9.25;;;2.80;99.90;;;;;;5038676;28;20481;-92
2022/11/29 04:12:17;;;;;;;46.78;9.85;;;2.80;99.90;;;;;;5040924;28;20053;-90
2022/11/29 04:15:02;;;;;;;46.20;8.52;;;2.80;99.90;;;;;;5036986;28;20025;-91
2022/11/29 04:18:00;;;;;;;65.85;8.45;;;2.80;99.90;;;;;;5052633;28;20079;-91
2022/11/29 04:21:04;;;;;;;34.17;9.35;;;2.80;99.90;;;;;;4985276;28;20033;-91
2022/11/29 04:23:55;;;;;;;57.92;9.65;;;2.90;99.90;;;;;;5034492;28;20036;-91
2022/11/29 04:26:55;;;;;;;76.60;9.70;;;2.90;99.90;;;;;;5035069;28;20021;-91
2022/11/29 04:29:57;;;;;;;79.65;10.35;;;2.90;99.90;;;;;;5035084;28;20068;-90
2022/11/29 04:32:44;;;;;;;119.38;12.82;;;2.90;99.90;;;;;;5052320;28;20025;-91
2022/11/29 04:35:32;;;;;;;71.03;13.07;;;2.90;99.90;;;;;;5034676;28;20029;-91
2022/11/29 04:38:16;;;;;;;46.42;8.93;;;2.90;99.90;;;;;;5034966;28;20456;-91
2022/11/29 04:40:50;;;;;;;115.30;10.35;;;2.90;99.90;;;;;;5034210;28;20027;-91
2022/11/29 04:43:59;;;;;;;128.68;10.45;;;2.80;99.90;;;;;;5033970;28;20393;-91
2022/11/29 04:46:51;;;;;;;99.07;10.65;;;2.80;99.90;;;;;;5034769;28;20029;-91
2022/11/29 04:49:36;;;;;;;63.30;9.10;;;2.80;99.90;;;;;;5051959;28;20103;-91
2022/11/29 04:52:39;;;;;;;94.82;9.90;;;2.80;99.90;;;;;;5034729;28;20109;-91
2022/11/29 04:55:14;;;;;;;192.13;12.88;;;2.90;99.90;;;;;;5035000;28;20029;-90
2022/11/29 04:58:18;;;;;;;120.05;10.27;;;2.80;99.90;;;;;;5034541;28;20535;-90
2022/11/29 05:00:56;;;;;;;96.60;11.15;;;2.80;99.90;;;;;;5019622;28;20064;-91
2022/11/29 05:03:37;;;;;;;70.00;10.32;;;2.90;99.90;;;;;;5039840;28;20033;-91
2022/11/29 05:06:22;;;;;;;186.65;14.07;;;2.90;99.90;;;;;;5056677;28;20017;-90
2022/11/29 05:08:58;;;;;;;54.50;9.13;;;2.90;99.90;;;;;;5055090;28;20043;-91
2022/11/29 05:11:43;;;;;;;72.63;9.82;;;2.90;99.90;;;;;;5056978;28;20053;-91
2022/11/29 05:14:23;;;;;;;106.85;9.98;;;2.90;99.90;;;;;;5056618;28;20068;-90
2022/11/29 05:16:59;;;;;;;110.50;11.40;;;3.00;99.90;;;;;;5056976;28;20021;-90
2022/11/29 05:19:43;;;;;;;42.33;6.75;;;3.00;99.90;;;;;;5038582;28;20494;-91
2022/11/29 05:22:27;;;;;;;69.05;9.38;;;3.00;99.90;;;;;;5055292;28;20496;-91
2022/11/29 05:25:27;;;;;;;150.35;8.85;;;3.00;99.90;;;;;;5038359;28;20056;-90
2022/11/29 05:28:30;;;;;;;117.38;9.13;;;3.00;99.90;;;;;;5055622;28;20029;-90
2022/11/29 05:31:02;;;;;;;57.28;6.70;;;2.90;99.90;;;;;;5038296;28;20033;-91
2022/11/29 05:33:57;;;;;;;84.60;9.43;;;2.90;99.90;;;;;;5056577;28;20022;-91
2022/11/29 05:36:34;;;;;;;57.22;7.13;;;2.90;99.90;;;;;;5038103;28;20049;-91
2022/11/29 05:39:12;;;;;;;40.45;9.18;;;2.90;99.90;;;;;;5037268;28;20592;-91
2022/11/29 05:42:22;;;;;;;26.65;6.03;;;3.00;99.90;;;;;;5037265;28;20032;-92
2022/11/29 05:45:14;;;;;;;23.60;5.90;;;2.90;99.90;;;;;;5055300;28;20059;-92
2022/11/29 05:48:03;;;;;;;28.85;5.25;;;3.10;99.90;;;;;;5000706;28;20158;-91
2022/11/29 05:50:38;;;;;;;41.65;6.40;;;3.10;99.90;;;;;;5037678;28;20029;-91
2022/11/29 05:53:09;;;;;;;71.05;7.43;;;3.10;99.90;;;;;;5037131;28;20079;-92
2022/11/29 05:55:53;;;;;;;38.90;4.90;;;3.10;99.90;;;;;;5037223;28;20496;-90
2022/11/29 05:58:44;;;;;;;34.70;3.63;;;3.10;99.90;;;;;;5037045;28;20089;-91
2022/11/29 06:01:19;;;;;;;51.92;6.63;;;3.00;99.90;;;;;;5037924;28;20037;-91
2022/11/29 06:03:55;;;;;;;44.45;5.00;;;2.90;99.90;;;;;;5037408;28;20029;-92
2022/11/29 06:06:29;;;;;;;52.88;4.82;;;2.90;99.90;;;;;;5054976;28;20036;-89
2022/11/29 06:09:09;;;;;;;28.90;5.47;;;2.90;99.90;;;;;;5054353;28;20028;-91
2022/11/29 06:11:44;;;;;;;21.85;5.10;;;2.80;99.90;;;;;;5036893;28;20067;-91
2022/11/29 06:14:36;;;;;;;20.30;4.15;;;2.80;99.90;;;;;;5035999;28;20051;-91
2022/11/29 06:17:31;;;;;;;42.08;6.85;;;2.80;99.90;;;;;;5054877;28;20502;-91
2022/11/29 06:20:22;;;;;;;39.22;5.20;;;2.90;99.90;;;;;;5036704;28;20024;-91
2022/11/29 06:23:09;;;;;;;39.13;5.38;;;2.90;99.90;;;;;;5036664;28;20088;-91
2022/11/29 06:25:42;;;;;;;45.22;5.13;;;2.90;99.90;;;;;;5054775;28;20025;-91
2022/11/29 06:28:26;;;;;;;33.72;4.85;;;2.90;99.90;;;;;;5055256;28;20025;-91
2022/11/29 06:31:13;;;;;;;43.03;5.20;;;2.80;99.90;;;;;;5037181;28;20493;-91
2022/11/29 06:33:58;;;;;;;108.63;8.15;;;2.80;99.90;;;;;;5036831;28;20120;-92
2022/11/29 06:36:45;;;;;;;64.32;4.80;;;2.80;99.90;;;;;;5036487;28;20033;-91
2022/11/29 06:39:11;;;;;;;46.58;5.13;;;2.80;99.90;;;;;;5036257;28;20033;-91
2022/11/29 06:41:37;;;;;;;30.70;4.97;;;2.80;99.90;;;;;;5036584;28;20028;-91
2022/11/29 06:44:03;;;;;;;81.28;8.52;;;2.80;99.90;;;;;;5054325;28;20029;-92
2022/11/29 06:46:29;;;;;;;54.60;6.45;;;2.80;99.90;;;;;;5036107;28;20032;-92
2022/11/29 06:49:45;;;;;;;36.42;4.63;;;2.80;99.90;;;;;;5036407;28;20025;-90
2022/11/29 06:52:36;;;;;;;80.68;5.88;;;2.80;99.90;;;;;;4956404;29;20042;-91
2022/11/29 06:55:18;;;;;;;93.50;6.15;;;2.80;99.90;;;;;;4938104;29;20030;-91
2022/11/29 06:57:46;;;;;;;73.57;5.72;;;2.70;99.90;;;;;;4938160;29;20043;-89
2022/11/29 07:00:18;;;;;;;27.55;4.82;;;2.70;99.90;;;;;;4937503;29;20031;-92
2022/11/29 07:02:49;;;;;;;52.72;5.00;;;2.70;99.90;;;;;;4937557;29;20521;-92
2022/11/29 07:05:22;;;;;;;146.18;10.30;;;2.70;99.90;;;;;;4953661;29;20035;-90
2022/11/29 07:07:52;;;;;;;137.85;7.28;;;2.70;99.90;;;;;;4953833;29;20535;-92
2022/11/29 07:10:19;;;;;;;129.45;6.55;;;2.70;99.90;;;;;;4936588;29;20051;-91
2022/11/29 07:12:46;;;;;;;47.88;5.10;;;2.70;99.90;;;;;;4945887;28;20024;-91
2022/11/29 07:15:17;;;;;;;47.40;5.28;;;2.70;99.90;;;;;;4935440;29;20374;-91
2022/11/29 07:18:01;;;;;;;69.75;5.47;;;2.70;99.90;;;;;;4934295;29;20022;-90
2022/11/29 07:20:50;;;;;;;56.65;5.45;;;2.70;99.90;;;;;;4943475;29;20031;-91
2022/11/29 07:23:36;;;;;;;22.13;4.00;;;2.70;99.90;;;;;;5004000;28;20091;-91
2022/11/29 07:26:20;;;;;;;45.78;6.15;;;2.70;99.90;;;;;;5031177;28;20045;-91
2022/11/29 07:29:05;;;;;;;170.35;8.80;;;2.70;99.90;;;;;;5030291;28;20033;-91
2022/11/29 07:31:44;;;;;;;161.02;8.05;;;2.70;99.90;;;;;;5032228;28;20036;-91
2022/11/29 07:34:21;;;;;;;105.97;6.63;;;2.70;99.90;;;;;;5047186;28;20028;-91
2022/11/29 07:37:34;;;;;;;157.65;8.70;;;2.60;99.90;;;;;;5040039;28;20044;-92
2022/11/29 07:40:12;;;;;;;80.32;5.85;;;2.60;99.90;;;;;;5034791;28;20033;-88
2022/11/29 07:42:59;;;;;;;27.70;4.05;;;2.60;99.90;;;;;;5054072;28;20037;-90
2022/11/29 07:45:25;;;;;;;32.00;4.68;;;2.60;99.90;;;;;;5046558;28;20036;-91
2022/11/29 07:47:51;;;;;;;19.08;3.95;;;2.60;99.90;;;;;;5031731;28;20465;-91
2022/11/29 07:50:17;;;;;;;72.20;4.93;;;2.60;99.90;;;;;;5033065;28;20116;-91
2022/11/29 07:52:42;;;;;;;84.43;6.00;;;2.60;99.90;;;;;;5032659;28;20030;-91
2022/11/29 07:55:19;;;;;;;127.55;6.45;;;2.60;99.90;;;;;;5032853;28;20467;-92
2022/11/29 07:57:46;;;;;;;52.72;6.40;;;2.60;99.90;;;;;;5030608;28;20035;-92
2022/11/29 08:00:12;;;;;;;118.78;6.88;;;2.50;99.90;;;;;;5031739;28;20014;-93
2022/11/29 08:02:38;;;;;;;64.35;5.85;;;2.50;99.90;;;;;;5045709;28;20052;-92
2022/11/29 08:05:07;;;;;;;138.73;8.43;;;2.50;99.90;;;;;;5032693;28;20068;-93
2022/11/29 08:07:37;;;;;;;62.88;5.22;;;2.50;99.90;;;;;;5033818;28;20037;-93
2022/11/29 08:10:09;;;;;;;35.70;4.75;;;2.50;99.90;;;;;;5027569;28;20064;-93
2022/11/29 08:12:35;;;;;;;66.38;5.35;;;2.40;99.90;;;;;;5033931;28;20034;-93
2022/11/29 08:15:01;;;;;;;78.90;5.82;;;2.50;99.90;;;;;;5034684;28;20022;-93
2022/11/29 08:17:27;;;;;;;145.13;9.10;;;2.40;99.90;;;;;;5035532;28;20022;-94
2022/11/29 08:19:52;;;;;;;86.40;7.18;;;2.50;99.90;;;;;;5034355;28;20371;-93
2022/11/29 08:22:18;;;;;;;19.33;5.15;;;2.40;99.90;;;;;;5034855;28;20034;-93
2022/11/29 08:24:44;;;;;;;55.30;5.45;;;2.40;99.90;;;;;;5033600;28;20101;-94
2022/11/29 08:27:10;;;;;;;24.42;5.50;;;2.60;99.90;;;;;;5033802;28;20030;-93
2022/11/29 08:29:35;;;;;;;18.10;4.90;;;2.60;99.90;;;;;;5033822;28;20509;-93
2022/11/29 08:32:01;;;;;;;27.98;5.78;;;2.70;99.90;;;;;;5035881;28;20041;-94
2022/11/29 08:34:27;;;;;;;76.68;5.75;;;2.80;99.90;;;;;;5033065;28;20710;-93
2022/11/29 08:36:56;;;;;;;118.53;10.43;;;2.90;99.90;;;;;;5030715;28;20111;-92
2022/11/29 08:39:22;;;;;;;32.40;4.55;;;2.90;99.90;;;;;;5031538;28;20491;-93
2022/11/29 08:41:51;;;;;;;25.33;4.90;;;2.90;99.90;;;;;;5031725;28;20109;-93
2022/11/29 08:44:17;;;;;;;35.08;5.10;;;2.90;99.90;;;;;;5031537;28;20021;-94
2022/11/29 08:49:27;;;;;;;26.08;7.00;;;3.00;99.90;;;;;;5024428;28;20032;-95
2022/11/29 08:53:40;;;;;;;18.50;5.00;;;3.00;99.90;;;;;;5024105;28;20545;-95
2022/11/29 08:54:38;;;;;;;32.08;5.38;;;3.00;99.90;;;;;;5028530;28;20039;-93
2022/11/29 08:57:04;;;;;;;14.85;5.50;;;3.10;99.90;;;;;;5030339;28;20037;-92
2022/11/29 08:59:30;;;;;;;107.13;7.38;;;3.10;99.90;;;;;;5030769;28;20025;-93
2022/11/29 09:01:56;;;;;;;20.13;5.25;;;3.10;99.90;;;;;;5032078;28;20076;-94
2022/11/29 09:04:21;;;;;;;27.38;5.53;;;3.10;99.90;;;;;;5031291;28;20060;-93
2022/11/29 09:06:50;;;;;;;90.30;5.70;;;3.10;99.90;;;;;;5031434;28;20441;-92
2022/11/29 09:09:16;;;;;;;11.65;4.47;;;3.10;99.90;;;;;;5031987;28;20036;-94
2022/11/29 09:11:42;;;;;;;33.95;3.38;;;3.10;99.90;;;;;;5032301;28;20049;-94
2022/11/29 09:14:11;;;;;;;19.15;2.78;;;3.10;99.90;;;;;;5032117;28;20025;-92
2022/11/29 09:16:37;;;;;;;11.63;3.40;;;3.00;99.90;;;;;;5033236;28;20026;-95
2022/11/29 09:19:04;;;;;;;34.08;3.60;;;3.00;99.90;;;;;;5031588;28;20025;-92
2022/11/29 09:21:31;;;;;;;5.03;2.45;;;3.00;99.90;;;;;;5033160;28;20065;-95
2022/11/29 09:24:04;;;;;;;9.18;2.92;;;3.00;99.90;;;;;;5032055;28;20075;-94
2022/11/29 09:26:32;;;;;;;10.05;2.50;;;3.00;99.90;;;;;;5032202;28;20025;-95
2022/11/29 09:29:02;;;;;;;8.57;2.70;;;3.00;99.90;;;;;;5031930;28;20029;-94
2022/11/29 09:31:29;;;;;;;15.82;2.95;;;3.10;99.90;;;;;;5032170;28;20482;-89
2022/11/29 09:33:55;;;;;;;27.52;2.22;;;3.10;99.90;;;;;;5033144;28;20112;-94
2022/11/29 09:36:22;;;;;;;24.33;2.53;;;3.10;99.90;;;;;;5032176;28;20033;-94
2022/11/29 09:38:47;;;;;;;18.45;2.70;;;3.10;99.90;;;;;;5031810;28;20053;-94
2022/11/29 09:41:20;;;;;;;5.82;2.08;;;3.00;99.90;;;;;;5031966;28;20026;-94
2022/11/29 09:44:06;;;;;;;3.30;2.20;;;3.10;99.90;;;;;;5033377;28;20039;-94
2022/11/29 09:47:00;;;;;;;12.10;2.70;;;3.10;99.90;;;;;;5031636;28;20029;-94
2022/11/29 09:49:32;;;;;;;9.90;2.55;;;3.20;99.90;;;;;;5036688;28;20499;-93
2022/11/29 09:52:26;;;;;;;26.02;5.45;;;3.20;99.90;;;;;;5036916;28;20036;-95
2022/11/29 09:55:15;;;;;;;60.00;8.98;;;3.30;99.90;;;;;;5037982;28;20037;-95
2022/11/29 09:57:43;;;;;;;27.45;5.05;;;3.30;99.90;;;;;;5035658;28;20044;-93
2022/11/29 10:00:20;;;;;;;17.85;3.95;;;3.30;99.90;;;;;;5025058;28;20026;-91
2022/11/29 10:03:10;;;;;;;14.27;2.40;;;3.20;99.90;;;;;;5017580;28;20501;-92
2022/11/29 10:05:48;;;;;;;7.63;3.30;;;3.20;99.90;;;;;;5015659;28;20033;-93
2022/11/29 10:08:22;;;;;;;6.22;3.10;;;3.20;99.90;;;;;;5015273;28;20026;-94
2022/11/29 10:10:51;;;;;;;6.35;3.05;;;3.20;99.90;;;;;;5044131;28;20065;-95
2022/11/29 10:13:22;;;;;;;6.15;2.95;;;3.30;99.90;;;;;;5064677;28;20029;-94
2022/11/29 10:15:53;;;;;;;33.80;4.43;;;3.30;99.90;;;;;;5057179;28;20074;-93
2022/11/29 10:18:30;;;;;;;72.60;6.43;;;3.40;99.90;;;;;;5038299;28;20507;-93
2022/11/29 10:20:58;;;;;;;37.45;4.45;;;3.40;99.90;;;;;;5056053;28;20481;-94
2022/11/29 10:23:32;;;;;;;8.82;4.57;;;3.30;99.90;;;;;;5038256;28;20107;-94
2022/11/29 10:25:58;;;;;;;14.25;5.55;;;3.30;99.90;;;;;;5055427;28;20017;-92
2022/11/29 10:28:30;;;;;;;42.53;5.25;;;3.30;99.90;;;;;;5038065;28;20039;-94
2022/11/29 10:31:00;;;;;;;60.17;6.18;;;3.30;99.90;;;;;;5055342;28;20017;-94
2022/11/29 10:33:31;;;;;;;;;;;3.30;99.90;;;;;;5056076;28;20040;-94
2022/11/29 10:36:00;;;;;;;69.45;5.97;;;3.30;99.90;;;;;;5037658;28;19905;-94
2022/11/29 10:38:26;;;;;;;17.73;4.78;;;3.30;99.90;;;;;;5037515;28;20043;-95
2022/11/29 10:41:15;;;;;;;22.05;4.80;;;3.30;99.90;;;;;;5037979;28;20032;-94
2022/11/29 10:43:41;;;;;;;18.80;5.07;;;3.30;99.90;;;;;;5037785;28;20033;-95
2022/11/29 10:46:18;;;;;;;15.75;4.55;;;3.30;99.90;;;;;;5037937;28;20025;-94
2022/11/29 10:48:44;;;;;;;22.10;5.30;;;3.30;99.90;;;;;;5037825;28;20033;-94
2022/11/29 10:51:16;;;;;;;21.25;6.07;;;3.40;99.90;;;;;;5056152;28;20032;-94
2022/11/29 10:53:44;;;;;;;16.60;4.72;;;3.50;99.90;;;;;;5037955;28;20025;-94
2022/11/29 10:56:21;;;;;;;17.13;5.15;;;3.60;99.90;;;;;;5038505;28;20025;-94
2022/11/29 10:59:01;;;;;;;19.70;5.95;;;3.60;99.90;;;;;;5055566;28;20032;-94
2022/11/29 11:01:28;;;;;;;40.70;9.02;;;3.70;99.90;;;;;;5062525;28;20025;-93
2022/11/29 11:03:56;;;;;;;121.22;9.15;;;3.70;99.90;;;;;;5058421;28;20036;-94
2022/11/29 11:06:50;;;;;;;36.00;6.25;;;3.80;99.90;;;;;;5037875;28;20053;-94
2022/11/29 11:09:20;;;;;;;34.60;4.70;;;3.70;99.90;;;;;;5052662;28;20045;-95
2022/11/29 11:11:52;;;;;;;65.30;6.95;;;3.70;99.90;;;;;;5058832;28;20077;-93
2022/11/29 11:14:20;;;;;;;14.50;6.40;;;3.70;99.90;;;;;;5043853;28;20032;-94
2022/11/29 11:16:45;;;;;;;21.33;5.03;;;3.80;99.90;;;;;;5060234;28;20136;-94
2022/11/29 11:19:27;;;;;;;19.27;4.90;;;3.80;99.90;;;;;;5041512;28;20056;-94
2022/11/29 11:21:57;;;;;;;43.85;5.32;;;3.90;99.90;;;;;;5056067;28;20061;-94
2022/11/29 11:24:27;;;;;;;15.57;4.57;;;4.00;99.90;;;;;;5037845;28;20024;-94
2022/11/29 11:26:53;;;;;;;57.63;5.65;;;4.00;99.90;;;;;;5056198;28;20032;-94
2022/11/29 11:29:23;;;;;;;35.60;7.28;;;4.00;99.90;;;;;;5036891;28;20035;-94
2022/11/29 11:31:58;;;;;;;59.80;5.25;;;4.00;99.90;;;;;;5037863;28;20082;-92
2022/11/29 11:34:35;;;;;;;21.50;4.82;;;4.00;99.90;;;;;;5036951;28;20077;-94
2022/11/29 11:37:21;;;;;;;26.90;5.65;;;4.00;99.90;;;;;;5036709;28;20029;-94
2022/11/29 11:39:49;;;;;;;52.88;5.15;;;4.00;99.90;;;;;;5036527;28;20071;-93
2022/11/29 11:42:37;;;;;;;128.95;6.53;;;4.00;99.90;;;;;;5036643;28;20379;-94
2022/11/29 11:45:12;;;;;;;15.65;4.90;;;3.90;99.90;;;;;;5039067;28;20033;-94
2022/11/29 11:47:52;;;;;;;67.75;6.72;;;3.90;99.90;;;;;;5039846;28;20093;-94
2022/11/29 11:50:36;;;;;;;78.78;5.63;;;3.90;99.90;;;;;;5037665;28;20031;-93
2022/11/29 11:53:18;;;;;;;16.45;4.60;;;3.90;99.90;;;;;;5030056;28;20025;-94
2022/11/29 11:55:54;;;;;;;29.38;5.32;;;3.90;99.90;;;;;;5037053;28;20036;-93
2022/11/29 11:58:26;;;;;;;57.30;6.80;;;3.90;99.90;;;;;;5036969;28;20028;-94
2022/11/29 12:00:53;;;;;;;65.10;6.00;;;3.90;99.90;;;;;;5035598;28;20025;-94
2022/11/29 12:03:42;;;;;;;11.93;4.35;;;4.00;99.90;;;;;;5036913;28;20517;-94
2022/11/29 12:06:28;;;;;;;12.93;5.00;;;3.90;99.90;;;;;;5036441;28;20036;-95
2022/11/29 12:09:04;;;;;;;82.85;6.13;;;4.00;99.90;;;;;;5054252;28;20068;-95
2022/11/29 12:11:40;;;;;;;38.08;6.00;;;4.00;99.90;;;;;;5037076;28;20059;-95
2022/11/29 12:14:06;;;;;;;40.38;6.78;;;4.00;99.90;;;;;;5058524;28;20037;-95
2022/11/29 12:16:36;;;;;;;31.38;6.32;;;4.00;99.90;;;;;;5041674;28;20029;-95
2022/11/29 12:19:12;;;;;;;29.98;6.40;;;4.00;99.90;;;;;;5040152;28;20040;-93
2022/11/29 12:21:43;;;;;;;25.63;5.97;;;4.00;99.90;;;;;;5040286;28;20044;-94
2022/11/29 12:24:36;;;;;;;26.67;5.38;;;4.00;99.90;;;;;;5066946;28;20080;-93
2022/11/29 12:27:04;;;;;;;10.50;5.53;;;4.10;99.90;;;;;;5057288;28;20270;-93
2022/11/29 12:29:33;;;;;;;28.30;5.88;;;4.10;99.90;;;;;;5057428;28;20013;-91
2022/11/29 12:32:26;;;;;;;37.92;6.35;;;4.10;99.90;;;;;;5073535;28;20063;-94
2022/11/29 12:35:07;;;;;;;12.45;5.43;;;4.10;99.90;;;;;;5055754;28;20083;-95
2022/11/29 12:37:55;;;;;;;;;;;4.20;99.90;;;;;;5053301;28;20066;-94
2022/11/29 12:40:21;;;;;;;15.55;5.95;;;4.20;99.90;;;;;;5054876;28;19908;-95
2022/11/29 12:43:09;;;;;;;14.63;5.60;;;4.20;99.90;;;;;;5049181;28;20075;-95
2022/11/29 12:46:09;;;;;;;26.17;7.03;;;4.20;99.90;;;;;;5036574;28;20075;-94
2022/11/29 12:48:57;;;;;;;27.08;7.00;;;4.30;99.90;;;;;;5054394;28;20029;-92
2022/11/29 12:51:47;;;;;;;24.25;6.55;;;4.40;99.90;;;;;;5036840;28;20125;-95
2022/11/29 12:54:30;;;;;;;17.95;6.57;;;4.30;99.90;;;;;;5024944;28;20044;-90
2022/11/29 12:57:15;;;;;;;34.55;8.48;;;4.40;99.90;;;;;;5041826;28;20033;-95
2022/11/29 12:59:59;;;;;;;42.40;8.20;;;4.40;99.90;;;;;;5015933;28;20025;-94
2022/11/29 13:02:28;;;;;;;22.58;7.10;;;4.40;99.90;;;;;;5032180;28;20033;-95
2022/11/29 13:05:13;;;;;;;24.45;8.18;;;4.40;99.90;;;;;;5031459;28;20045;-94
2022/11/29 13:08:00;;;;;;;24.33;8.13;;;4.40;99.90;;;;;;5015580;28;20034;-93
2022/11/29 13:10:45;;;;;;;40.22;8.25;;;4.40;99.90;;;;;;5032234;28;20422;-94
2022/11/29 13:13:43;;;;;;;21.50;8.05;;;4.40;99.90;;;;;;5016141;28;20022;-94
2022/11/29 13:16:51;;;;;;;50.47;10.07;;;4.40;99.90;;;;;;5035088;28;20044;-94
2022/11/29 13:19:40;;;;;;;43.60;9.30;;;4.40;99.90;;;;;;4955505;29;20042;-94
2022/11/29 13:22:08;;;;;;;30.33;9.20;;;4.40;99.90;;;;;;4956262;28;20063;-93
2022/11/29 13:24:58;;;;;;;25.00;8.40;;;4.40;99.90;;;;;;4958443;29;20031;-93
2022/11/29 13:27:31;;;;;;;33.30;10.13;;;4.40;99.90;;;;;;4957758;29;20063;-93
2022/11/29 13:29:59;;;;;;;41.28;12.65;;;4.40;99.90;;;;;;4941845;29;20035;-93
2022/11/29 13:32:30;;;;;;;36.33;13.48;;;4.40;99.90;;;;;;4956903;29;20031;-93
2022/11/29 13:35:19;;;;;;;45.22;12.70;;;4.50;99.90;;;;;;4957221;29;20031;-92
2022/11/29 13:37:54;;;;;;;42.55;13.05;;;4.50;99.90;;;;;;4958702;29;20034;-92